createdAt,value
2019-01-21T00:01:04.980Z,-4.60
2019-01-21T00:03:34.850Z,-4.70
2019-01-21T00:06:04.450Z,-4.70
2019-01-21T00:08:40.484Z,-4.70
2019-01-21T00:11:04.697Z,-4.70
2019-01-21T00:17:13.836Z,-4.70
2019-01-21T00:19:42.364Z,-4.80
2019-01-21T00:25:39.263Z,-4.80
2019-01-21T00:28:08.964Z,-4.80
2019-01-21T00:30:53.215Z,-4.80
2019-01-21T00:33:21.781Z,-4.80
2019-01-21T00:35:50.272Z,-4.80
2019-01-21T00:38:18.703Z,-4.90
2019-01-21T00:40:47.173Z,-5.00
2019-01-21T00:43:15.648Z,-5.00
2019-01-21T00:45:44.129Z,-5.00
2019-01-21T00:48:12.581Z,-5.00
2019-01-21T00:50:41.057Z,-5.10
2019-01-21T00:53:09.542Z,-5.10
2019-01-21T00:55:38.027Z,-5.20
2019-01-21T00:58:07.686Z,-5.30
2019-01-21T01:00:37.873Z,-5.40
2019-01-21T01:03:08.321Z,-5.40
2019-01-21T01:05:37.133Z,-5.50
2019-01-21T01:08:06.036Z,-5.60
2019-01-21T01:10:36.352Z,-5.70
2019-01-21T01:13:05.091Z,-5.70
2019-01-21T01:15:37.441Z,-5.80
2019-01-21T01:18:06.217Z,-5.90
2019-01-21T01:20:34.919Z,-5.90
2019-01-21T01:23:23.815Z,-5.90
2019-01-21T01:25:52.899Z,-6.00
2019-01-21T01:28:22.041Z,-6.00
2019-01-21T01:30:50.484Z,-5.90
2019-01-21T01:33:20.333Z,-5.90
2019-01-21T01:35:48.751Z,-5.90
2019-01-21T01:38:17.224Z,-5.90
2019-01-21T01:40:45.742Z,-5.90
2019-01-21T01:43:14.249Z,-5.90
2019-01-21T01:45:43.306Z,-6.00
2019-01-21T01:48:11.848Z,-6.00
2019-01-21T01:50:41.291Z,-6.10
2019-01-21T01:53:09.815Z,-6.10
2019-01-21T01:55:38.644Z,-6.10
2019-01-21T01:58:07.232Z,-6.20
2019-01-21T02:00:36.976Z,-6.30
2019-01-21T02:03:05.652Z,-6.30
2019-01-21T02:05:37.078Z,-6.50
2019-01-21T02:08:20.937Z,-6.50
2019-01-21T02:10:50.025Z,-6.60
2019-01-21T02:13:18.488Z,-6.60
2019-01-21T02:15:46.932Z,-6.60
2019-01-21T02:18:17.284Z,-6.70
2019-01-21T02:20:48.310Z,-6.70
2019-01-21T02:23:32.574Z,-6.80
2019-01-21T02:26:02.210Z,-6.80
2019-01-21T02:32:34.189Z,-6.90
2019-01-21T02:35:05.853Z,-6.90
2019-01-21T02:37:37.924Z,-6.90
2019-01-21T02:40:09.471Z,-7.00
2019-01-21T02:42:56.083Z,-6.90
2019-01-21T02:45:40.433Z,-7.00
2019-01-21T02:48:17.107Z,-7.10
2019-01-21T02:50:54.602Z,-7.00
2019-01-21T02:56:43.623Z,-7.00
2019-01-21T02:59:33.494Z,-7.00
2019-01-21T03:02:10.297Z,-7.10
2019-01-21T03:05:05.091Z,-7.10
2019-01-21T03:07:42.731Z,-7.10
2019-01-21T03:10:17.015Z,-7.20
2019-01-21T03:13:04.829Z,-7.20
2019-01-21T03:15:39.394Z,-7.20
2019-01-21T03:18:33.650Z,-7.30
2019-01-21T03:21:23.212Z,-7.30
2019-01-21T03:24:26.890Z,-7.40
2019-01-21T03:27:14.532Z,-7.40
2019-01-21T03:29:52.145Z,-7.40
2019-01-21T03:32:43.062Z,-7.50
2019-01-21T03:35:17.268Z,-7.50
2019-01-21T03:38:04.006Z,-7.50
2019-01-21T03:40:44.628Z,-7.50
2019-01-21T03:43:30.935Z,-7.60
2019-01-21T03:46:21.508Z,-7.50
2019-01-21T03:48:53.385Z,-7.60
2019-01-21T03:51:58.323Z,-7.60
2019-01-21T03:54:27.948Z,-7.60
2019-01-21T03:56:59.566Z,-7.70
2019-01-21T03:59:41.092Z,-7.70
2019-01-21T04:02:21.946Z,-7.70
2019-01-21T04:05:11.564Z,-7.70
2019-01-21T04:07:49.004Z,-7.70
2019-01-21T04:10:37.251Z,-7.70
2019-01-21T04:13:25.698Z,-7.70
2019-01-21T04:15:59.855Z,-7.70
2019-01-21T04:18:46.389Z,-7.70
2019-01-21T04:21:29.920Z,-7.70
2019-01-21T04:24:25.312Z,-7.80
2019-01-21T04:27:14.935Z,-7.80
2019-01-21T04:29:52.226Z,-7.80
2019-01-21T04:32:26.629Z,-7.80
2019-01-21T04:35:07.054Z,-7.80
2019-01-21T04:37:41.526Z,-7.80
2019-01-21T04:40:25.080Z,-7.80
2019-01-21T04:43:11.474Z,-7.90
2019-01-21T04:45:45.904Z,-7.90
2019-01-21T04:48:33.334Z,-7.90
2019-01-21T04:51:24.559Z,-7.90
2019-01-21T04:54:16.599Z,-7.90
2019-01-21T04:56:54.187Z,-7.90
2019-01-21T04:59:43.557Z,-7.90
2019-01-21T05:02:20.991Z,-8.00
2019-01-21T05:05:01.152Z,-7.90
2019-01-21T05:07:35.184Z,-7.90
2019-01-21T05:10:36.754Z,-7.90
2019-01-21T05:13:28.119Z,-8.00
2019-01-21T05:15:59.675Z,-7.90
2019-01-21T05:18:47.652Z,-7.80
2019-01-21T05:21:36.100Z,-7.60
2019-01-21T05:24:24.116Z,-7.40
2019-01-21T05:26:55.627Z,-7.20
2019-01-21T05:32:35.966Z,-6.80
2019-01-21T05:35:23.909Z,-6.70
2019-01-21T05:38:14.826Z,-6.50
2019-01-21T05:40:48.808Z,-6.30
2019-01-21T05:43:37.255Z,-6.20
2019-01-21T05:46:30.014Z,-6.20
2019-01-21T05:49:19.643Z,-6.10
2019-01-21T05:51:59.443Z,-6.10
2019-01-21T05:54:47.265Z,-6.00
2019-01-21T05:57:30.516Z,-6.00
2019-01-21T06:00:35.418Z,-5.90
2019-01-21T06:03:24.795Z,-5.90
2019-01-21T06:06:19.048Z,-5.90
2019-01-21T06:09:03.516Z,-5.80
2019-01-21T06:11:55.628Z,-5.80
2019-01-21T06:14:36.110Z,-5.70
2019-01-21T06:17:16.415Z,-5.70
2019-01-21T06:20:00.033Z,-5.70
2019-01-21T06:22:32.181Z,-5.70
2019-01-21T06:25:06.612Z,-5.70
2019-01-21T06:27:46.945Z,-5.70
2019-01-21T06:30:28.089Z,-5.60
2019-01-21T06:33:33.077Z,-5.60
2019-01-21T06:36:33.453Z,-5.60
2019-01-21T06:39:16.560Z,-5.50
2019-01-21T06:42:03.121Z,-5.50
2019-01-21T06:44:52.482Z,-5.50
2019-01-21T06:47:36.035Z,-5.50
2019-01-21T06:50:23.918Z,-5.50
2019-01-21T06:53:37.323Z,-5.60
2019-01-21T06:56:27.768Z,-5.60
2019-01-21T06:59:33.428Z,-5.70
2019-01-21T07:02:10.873Z,-5.70
2019-01-21T07:04:48.365Z,-5.70
2019-01-21T07:07:31.749Z,-5.60
2019-01-21T07:10:18.000Z,-5.60
2019-01-21T07:13:15.344Z,-5.60
2019-01-21T07:15:55.035Z,-5.60
2019-01-21T07:18:38.441Z,-5.50
2019-01-21T07:21:34.031Z,-5.50
2019-01-21T07:24:20.659Z,-5.50
2019-01-21T07:27:10.021Z,-5.50
2019-01-21T07:29:41.574Z,-5.50
2019-01-21T07:32:18.812Z,-5.40
2019-01-21T07:34:55.524Z,-5.40
2019-01-21T07:37:27.063Z,-5.40
2019-01-21T07:40:07.481Z,-5.30
2019-01-21T07:42:48.181Z,-5.30
2019-01-21T07:45:28.506Z,-5.30
2019-01-21T07:48:19.410Z,-5.30
2019-01-21T07:51:03.674Z,-5.30
2019-01-21T07:53:44.184Z,-5.30
2019-01-21T07:56:24.871Z,-5.30
2019-01-21T07:59:21.632Z,-5.30
2019-01-21T08:02:10.981Z,-5.30
2019-01-21T08:04:48.347Z,-5.30
2019-01-21T08:07:22.462Z,-5.20
2019-01-21T08:10:25.544Z,-5.20
2019-01-21T08:13:27.270Z,-5.10
2019-01-21T08:16:02.622Z,-5.10
2019-01-21T08:18:42.905Z,-5.10
2019-01-21T08:21:30.933Z,-5.10
2019-01-21T08:24:29.875Z,-5.00
2019-01-21T08:27:17.676Z,-5.00
2019-01-21T08:29:55.055Z,-4.90
2019-01-21T08:32:35.169Z,-4.90
2019-01-21T08:35:15.562Z,-4.90
2019-01-21T08:37:49.727Z,-4.80
2019-01-21T08:40:34.380Z,-4.80
2019-01-21T08:43:14.824Z,-4.80
2019-01-21T08:46:09.895Z,-4.80
2019-01-21T08:48:53.311Z,-4.70
2019-01-21T08:51:36.870Z,-4.70
2019-01-21T08:54:17.219Z,-4.60
2019-01-21T08:57:00.567Z,-4.60
2019-01-21T08:59:48.790Z,-4.50
2019-01-21T09:02:46.388Z,-4.50
2019-01-21T09:05:34.532Z,-4.40
2019-01-21T09:08:23.109Z,-4.40
2019-01-21T09:11:03.936Z,-4.40
2019-01-21T09:13:37.230Z,-4.30
2019-01-21T09:16:43.535Z,-4.20
2019-01-21T09:19:23.963Z,-4.10
2019-01-21T09:22:22.384Z,-4.00
2019-01-21T09:24:56.845Z,-3.90
2019-01-21T09:27:46.465Z,-3.90
2019-01-21T09:30:18.013Z,-3.80
2019-01-21T09:32:58.677Z,-3.80
2019-01-21T09:35:45.132Z,-3.80
2019-01-21T09:38:37.803Z,-3.60
2019-01-21T09:41:44.469Z,-3.40
2019-01-21T09:44:16.015Z,-3.10
2019-01-21T09:46:46.682Z,-2.90
2019-01-21T09:49:14.044Z,-2.70
2019-01-21T09:51:44.840Z,-2.30
2019-01-21T09:54:13.432Z,-2.00
2019-01-21T09:56:42.074Z,-2.20
2019-01-21T09:59:10.624Z,-2.40
2019-01-21T10:01:39.293Z,-2.40
2019-01-21T10:04:08.845Z,-2.30
2019-01-21T10:06:40.403Z,-2.20
2019-01-21T10:09:17.748Z,-1.90
2019-01-21T10:12:17.663Z,-1.80
2019-01-21T10:14:57.869Z,-1.60
2019-01-21T10:17:34.335Z,-1.50
2019-01-21T10:20:08.637Z,-1.00
2019-01-21T10:22:52.217Z,-0.50
2019-01-21T10:25:27.090Z,-0.40
2019-01-21T10:28:22.747Z,-0.40
2019-01-21T10:30:57.384Z,-0.60
2019-01-21T10:33:57.664Z,-1.00
2019-01-21T10:37:03.101Z,-1.30
2019-01-21T10:40:00.208Z,-1.00
2019-01-21T10:42:37.538Z,-0.90
2019-01-21T10:45:23.169Z,-0.80
2019-01-21T10:48:16.286Z,-0.60
2019-01-21T10:50:57.018Z,-0.50
2019-01-21T10:53:28.561Z,-0.70
2019-01-21T10:56:11.468Z,-0.90
2019-01-21T10:58:51.503Z,-0.90
2019-01-21T11:01:54.968Z,-1.10
2019-01-21T11:04:35.932Z,-1.20
2019-01-21T11:07:19.247Z,-1.40
2019-01-21T11:10:11.503Z,-1.40
2019-01-21T11:12:43.055Z,-1.50
2019-01-21T11:15:31.406Z,-1.40
2019-01-21T11:18:09.367Z,-1.40
2019-01-21T11:20:56.008Z,-1.50
2019-01-21T11:23:41.950Z,-1.60
2019-01-21T11:26:29.900Z,-1.60
2019-01-21T11:29:23.800Z,-1.60
2019-01-21T11:32:00.863Z,-1.60
2019-01-21T11:34:48.948Z,-1.60
2019-01-21T11:37:29.187Z,-1.50
2019-01-21T11:40:00.712Z,-1.40
2019-01-21T11:42:50.151Z,-1.40
2019-01-21T11:45:50.751Z,-1.50
2019-01-21T11:48:46.492Z,-1.50
2019-01-21T11:51:29.684Z,-1.50
2019-01-21T11:54:18.969Z,-1.40
2019-01-21T11:56:56.298Z,-1.40
2019-01-21T11:59:33.876Z,-1.40
2019-01-21T12:02:14.026Z,-1.40
2019-01-21T12:04:48.168Z,-1.30
2019-01-21T12:07:28.462Z,-1.20
2019-01-21T12:10:15.124Z,-1.10
2019-01-21T12:12:55.051Z,-1.10
2019-01-21T12:15:26.604Z,-1.10
2019-01-21T12:18:13.230Z,-1.00
2019-01-21T12:20:53.390Z,-1.10
2019-01-21T12:23:33.640Z,-1.00
2019-01-21T12:26:10.843Z,-1.10
2019-01-21T12:29:03.544Z,-1.10
2019-01-21T12:31:55.099Z,-1.00
2019-01-21T12:34:41.671Z,-0.90
2019-01-21T12:37:13.217Z,-0.80
2019-01-21T12:39:44.742Z,-0.80
2019-01-21T12:42:22.195Z,-0.80
2019-01-21T12:45:08.602Z,-0.90
2019-01-21T12:47:57.945Z,-0.90
2019-01-21T12:50:56.613Z,-0.90
2019-01-21T12:53:39.762Z,-0.80
2019-01-21T12:56:17.219Z,-0.70
2019-01-21T12:58:51.340Z,-0.60
2019-01-21T13:01:23.132Z,-0.60
2019-01-21T13:03:57.288Z,-0.50
2019-01-21T13:06:34.684Z,-0.50
2019-01-21T13:09:12.030Z,-0.50
2019-01-21T13:11:49.630Z,-0.50
2019-01-21T13:14:26.707Z,-0.50
2019-01-21T13:17:00.893Z,-0.40
2019-01-21T13:19:51.576Z,-0.30
2019-01-21T13:26:04.918Z,-0.10
2019-01-21T13:28:55.682Z,-0.20
2019-01-21T13:31:54.833Z,-0.20
2019-01-21T13:34:26.940Z,-0.20
2019-01-21T13:37:33.293Z,-0.20
2019-01-21T13:40:19.965Z,-0.20
2019-01-21T13:43:10.819Z,-0.20
2019-01-21T13:45:54.147Z,-0.30
2019-01-21T13:48:31.451Z,-0.30
2019-01-21T13:51:19.664Z,-0.20
2019-01-21T13:54:15.451Z,0.00
2019-01-21T13:56:56.360Z,0.00
2019-01-21T13:59:27.849Z,0.00
2019-01-21T14:02:08.641Z,0.10
2019-01-21T14:04:42.834Z,0.00
2019-01-21T14:07:32.513Z,0.00
2019-01-21T14:10:10.216Z,0.00
2019-01-21T14:12:47.415Z,0.00
2019-01-21T14:16:00.875Z,-0.10
2019-01-21T14:18:40.997Z,-0.10
2019-01-21T14:21:24.380Z,-0.20
2019-01-21T14:24:13.819Z,-0.20
2019-01-21T14:26:47.865Z,-0.20
2019-01-21T14:29:21.875Z,-0.20
2019-01-21T14:32:17.662Z,-0.20
2019-01-21T14:34:59.730Z,-0.30
2019-01-21T14:37:51.041Z,-0.30
2019-01-21T14:40:31.399Z,-0.30
2019-01-21T14:43:26.632Z,-0.30
2019-01-21T14:46:00.686Z,-0.30
2019-01-21T14:48:50.048Z,-0.30
2019-01-21T14:51:39.887Z,-0.40
2019-01-21T14:54:17.635Z,-0.40
2019-01-21T14:57:04.218Z,-0.40
2019-01-21T14:59:41.706Z,-0.40
2019-01-21T15:02:28.078Z,-0.40
2019-01-21T15:05:08.382Z,-0.40
2019-01-21T15:07:40.900Z,-0.50
2019-01-21T15:10:21.203Z,-0.50
2019-01-21T15:13:05.033Z,-0.60
2019-01-21T15:15:53.386Z,-0.60
2019-01-21T15:18:39.888Z,-0.60
2019-01-21T15:21:11.405Z,-0.60
2019-01-21T15:23:43.124Z,-0.60
2019-01-21T15:26:23.343Z,-0.60
2019-01-21T15:28:57.692Z,-0.70
2019-01-21T15:31:38.064Z,-0.80
2019-01-21T15:34:26.303Z,-0.80
2019-01-21T15:37:19.047Z,-0.90
2019-01-21T15:40:06.860Z,-0.90
2019-01-21T15:42:41.166Z,-0.90
2019-01-21T15:45:29.057Z,-1.00
2019-01-21T15:48:00.709Z,-1.00
2019-01-21T15:50:40.744Z,-1.10
2019-01-21T15:53:23.775Z,-1.10
2019-01-21T15:55:55.316Z,-1.20
2019-01-21T15:58:29.743Z,-1.20
2019-01-21T16:01:19.393Z,-1.40
2019-01-21T16:03:50.958Z,-1.50
2019-01-21T16:06:22.475Z,-1.60
2019-01-21T16:16:09.287Z,-1.80
2019-01-21T16:19:04.614Z,-2.00
2019-01-21T16:21:50.995Z,-2.10
2019-01-21T16:24:52.486Z,-2.20
2019-01-21T16:27:44.459Z,-2.30
2019-01-21T16:30:16.037Z,-2.50
2019-01-21T16:32:47.544Z,-2.60
2019-01-21T16:35:38.732Z,-2.60
2019-01-21T16:38:10.227Z,-2.70
2019-01-21T16:40:44.664Z,-2.80
2019-01-21T16:43:13.084Z,-2.80
2019-01-21T16:45:41.537Z,-2.90
2019-01-21T16:48:10.119Z,-3.00
2019-01-21T16:50:40.093Z,-3.00
2019-01-21T16:53:08.544Z,-3.10
2019-01-21T16:55:37.116Z,-3.20
2019-01-21T16:58:07.276Z,-3.20
2019-01-21T17:00:35.991Z,-3.20
2019-01-21T17:03:05.289Z,-3.30
2019-01-21T17:05:37.709Z,-3.40
2019-01-21T17:08:06.458Z,-3.40
2019-01-21T17:10:39.236Z,-3.40
2019-01-21T17:13:05.485Z,-3.50
2019-01-21T17:15:54.872Z,-3.60
2019-01-21T17:18:24.899Z,-3.60
2019-01-21T17:20:54.413Z,-3.70
2019-01-21T17:23:23.203Z,-3.80
2019-01-21T17:25:51.666Z,-3.80
2019-01-21T17:28:20.110Z,-3.90
2019-01-21T17:30:48.616Z,-3.90
2019-01-21T17:33:17.068Z,-3.90
2019-01-21T17:35:45.696Z,-4.00
2019-01-21T17:38:14.701Z,-4.00
2019-01-21T17:40:43.149Z,-4.10
2019-01-21T17:43:11.608Z,-4.10
2019-01-21T17:45:40.405Z,-4.20
2019-01-21T17:48:08.909Z,-4.30
2019-01-21T17:50:38.504Z,-4.30
2019-01-21T17:53:06.950Z,-4.30
2019-01-21T17:55:35.616Z,-4.40
2019-01-21T17:58:06.663Z,-4.50
2019-01-21T18:00:38.489Z,-4.50
2019-01-21T18:03:06.965Z,-4.60
2019-01-21T18:05:35.946Z,-4.60
2019-01-21T18:08:04.517Z,-4.60
2019-01-21T18:10:35.756Z,-4.60
2019-01-21T18:13:04.434Z,-4.60
2019-01-21T18:15:35.168Z,-4.60
2019-01-21T18:18:04.500Z,-4.60
2019-01-21T18:20:33.355Z,-4.60
2019-01-21T18:23:03.099Z,-4.60
2019-01-21T18:25:33.056Z,-4.70
2019-01-21T18:28:03.922Z,-4.70
2019-01-21T18:30:32.868Z,-4.80
2019-01-21T18:33:03.565Z,-4.80
2019-01-21T18:35:31.530Z,-4.90
2019-01-21T18:38:02.616Z,-4.90
2019-01-21T18:40:32.400Z,-5.00
2019-01-21T18:43:00.978Z,-5.10
2019-01-21T18:45:48.905Z,-5.10
2019-01-21T18:48:19.125Z,-5.10
2019-01-21T18:50:47.576Z,-5.20
2019-01-21T18:53:16.187Z,-5.20
2019-01-21T18:55:44.704Z,-5.30
2019-01-21T18:58:13.232Z,-5.20
2019-01-21T19:00:42.028Z,-5.30
2019-01-21T19:03:10.512Z,-5.40
2019-01-21T19:05:39.002Z,-5.40
2019-01-21T19:08:07.493Z,-5.40
2019-01-21T19:10:36.008Z,-5.40
2019-01-21T19:13:04.758Z,-5.50
2019-01-21T19:15:34.724Z,-5.50
2019-01-21T19:18:03.393Z,-5.50
2019-01-21T19:20:32.949Z,-5.50
2019-01-21T19:23:01.477Z,-5.60
2019-01-21T19:25:30.147Z,-5.60
2019-01-21T19:27:58.669Z,-5.70
2019-01-21T19:30:27.918Z,-5.70
2019-01-21T19:32:56.466Z,-5.70
2019-01-21T19:35:33.810Z,-5.70
2019-01-21T19:38:03.741Z,-5.70
2019-01-21T19:40:32.791Z,-5.70
2019-01-21T19:43:01.545Z,-5.80
2019-01-21T19:45:29.973Z,-5.80
2019-01-21T19:47:58.436Z,-5.70
2019-01-21T19:50:26.951Z,-5.70
2019-01-21T19:52:55.479Z,-5.70
2019-01-21T19:55:26.907Z,-5.80
2019-01-21T19:57:55.374Z,-5.70
2019-01-21T20:00:24.555Z,-5.70
2019-01-21T20:02:53.066Z,-5.80
2019-01-21T20:05:22.439Z,-5.80
2019-01-21T20:07:50.871Z,-5.90
2019-01-21T20:10:25.658Z,-5.90
2019-01-21T20:12:54.274Z,-5.90
2019-01-21T20:15:22.852Z,-6.00
2019-01-21T20:17:51.579Z,-6.00
2019-01-21T20:20:53.319Z,-6.10
2019-01-21T20:23:22.264Z,-6.10
2019-01-21T20:25:51.648Z,-6.20
2019-01-21T20:28:20.211Z,-6.20
2019-01-21T20:30:48.655Z,-6.30
2019-01-21T20:33:17.096Z,-6.30
2019-01-21T20:35:45.532Z,-6.40
2019-01-21T20:38:15.068Z,-6.40
2019-01-21T20:40:43.516Z,-6.40
2019-01-21T20:43:12.035Z,-6.40
2019-01-21T20:45:40.488Z,-6.50
2019-01-21T20:48:08.921Z,-6.50
2019-01-21T20:50:37.449Z,-6.60
2019-01-21T20:53:06.141Z,-6.70
2019-01-21T20:55:35.964Z,-6.70
2019-01-21T20:58:04.840Z,-6.70
2019-01-21T21:00:33.562Z,-6.70
2019-01-21T21:03:02.234Z,-6.70
2019-01-21T21:05:34.495Z,-6.70
2019-01-21T21:08:03.406Z,-6.70
2019-01-21T21:10:32.994Z,-6.70
2019-01-21T21:13:02.521Z,-6.70
2019-01-21T21:15:33.582Z,-6.80
2019-01-21T21:18:04.874Z,-6.80
2019-01-21T21:20:35.519Z,-6.80
2019-01-21T21:23:05.567Z,-6.80
2019-01-21T21:25:35.069Z,-6.80
2019-01-21T21:28:05.474Z,-6.90
2019-01-21T21:30:37.842Z,-6.80
2019-01-21T21:35:55.270Z,-6.80
2019-01-21T21:38:23.764Z,-6.90
2019-01-21T21:40:52.321Z,-6.90
2019-01-21T21:43:21.137Z,-7.00
2019-01-21T21:45:49.705Z,-7.10
2019-01-21T21:48:18.578Z,-7.10
2019-01-21T21:50:47.126Z,-7.20
2019-01-21T21:53:15.649Z,-7.20
2019-01-21T21:55:44.123Z,-7.30
2019-01-21T21:58:12.613Z,-7.30
2019-01-21T22:00:41.055Z,-7.30
2019-01-21T22:03:09.775Z,-7.30
2019-01-21T22:05:38.444Z,-7.30
2019-01-21T22:08:07.765Z,-7.30
2019-01-21T22:10:37.294Z,-7.30
2019-01-21T22:13:06.368Z,-7.30
2019-01-21T22:15:34.968Z,-7.40
2019-01-21T22:18:03.468Z,-7.40
2019-01-21T22:20:33.496Z,-7.40
2019-01-21T22:23:13.338Z,-7.50
2019-01-21T22:25:46.442Z,-7.50
2019-01-21T22:28:14.968Z,-7.00
2019-01-21T22:30:43.462Z,-7.50
2019-01-21T22:33:12.387Z,-7.50
2019-01-21T22:35:40.813Z,-7.50
2019-01-21T22:38:09.258Z,-7.50
2019-01-21T22:40:37.776Z,-7.50
2019-01-21T22:43:06.689Z,-7.50
2019-01-21T22:45:35.469Z,-7.50
2019-01-21T22:48:05.505Z,-7.40
2019-01-21T22:50:36.154Z,-7.40
2019-01-21T22:53:05.663Z,-7.40
2019-01-21T22:55:35.619Z,-7.50
2019-01-21T22:58:05.773Z,-7.50
2019-01-21T23:00:48.515Z,-7.50
2019-01-21T23:03:17.019Z,-7.60
2019-01-21T23:05:45.457Z,-7.60
2019-01-21T23:08:13.970Z,-7.70
2019-01-21T23:10:42.490Z,-7.70
2019-01-21T23:13:10.947Z,-7.70
2019-01-21T23:15:39.379Z,-7.80
2019-01-21T23:18:08.105Z,-7.80
2019-01-21T23:20:37.397Z,-7.90
2019-01-21T23:23:07.877Z,-7.90
2019-01-21T23:25:37.090Z,-7.90
2019-01-21T23:28:06.260Z,-7.90
2019-01-21T23:30:35.563Z,-8.00
2019-01-21T23:33:04.409Z,-8.00
2019-01-21T23:35:32.958Z,-8.00
2019-01-21T23:38:01.525Z,-8.10
2019-01-21T23:40:30.112Z,-8.10
2019-01-21T23:42:58.644Z,-8.10
2019-01-21T23:45:27.086Z,-8.10
2019-01-21T23:47:55.557Z,-8.20
2019-01-21T23:50:24.449Z,-8.20
2019-01-21T23:52:56.308Z,-8.20
2019-01-21T23:55:23.659Z,-8.20
2019-01-21T23:57:52.662Z,-8.20
